createdAt,value
2023-03-13T00:01:42.709Z,112.87
2023-03-13T00:04:09.733Z,114.27
2023-03-13T00:06:39.605Z,114.10
2023-03-13T00:09:12.055Z,114.60
2023-03-13T00:11:39.689Z,114.47
2023-03-13T00:14:07.975Z,114.67
2023-03-13T00:16:37.436Z,114.57
2023-03-13T00:19:07.116Z,114.27
2023-03-13T00:21:37.453Z,114.23
2023-03-13T00:24:05.073Z,113.97
2023-03-13T00:26:32.455Z,114.30
2023-03-13T00:28:59.898Z,114.17
2023-03-13T00:31:32.147Z,113.73
2023-03-13T00:34:03.021Z,114.40
2023-03-13T00:36:35.306Z,113.30
2023-03-13T00:39:06.204Z,113.60
2023-03-13T00:41:35.927Z,112.10
2023-03-13T00:44:04.186Z,113.70
2023-03-13T00:46:31.636Z,113.57
2023-03-13T00:48:58.932Z,113.90
2023-03-13T00:51:27.801Z,113.57
2023-03-13T00:54:00.831Z,111.80
2023-03-13T00:56:29.591Z,114.27
2023-03-13T00:58:56.656Z,114.23
2023-03-13T01:01:32.575Z,113.70
2023-03-13T01:04:11.355Z,113.57
2023-03-13T01:06:44.748Z,112.90
2023-03-13T01:09:16.044Z,113.40
2023-03-13T01:11:45.162Z,114.37
2023-03-13T01:14:19.117Z,113.43
2023-03-13T01:16:47.107Z,114.23
2023-03-13T01:19:16.713Z,113.87
2023-03-13T01:21:47.033Z,113.97
2023-03-13T01:24:14.635Z,113.80
2023-03-13T01:26:43.255Z,113.70
2023-03-13T01:29:10.750Z,114.33
2023-03-13T01:31:38.074Z,113.90
2023-03-13T01:34:08.388Z,113.77
2023-03-13T01:36:37.780Z,113.87
2023-03-13T01:39:06.828Z,113.70
2023-03-13T01:41:33.947Z,113.97
2023-03-13T01:44:01.174Z,110.87
2023-03-13T01:46:37.308Z,113.70
2023-03-13T01:49:27.629Z,113.00
2023-03-13T01:52:31.043Z,113.87
2023-03-13T01:55:16.016Z,113.93
2023-03-13T01:57:52.380Z,112.80
2023-03-13T02:00:29.470Z,113.80
2023-03-13T02:03:04.235Z,113.43
2023-03-13T02:05:34.678Z,113.40
2023-03-13T02:08:25.348Z,113.00
2023-03-13T02:11:13.842Z,113.20
2023-03-13T02:13:41.288Z,113.27
2023-03-13T02:16:09.450Z,113.97
2023-03-13T02:18:38.231Z,114.23
2023-03-13T02:21:39.234Z,112.60
2023-03-13T02:24:32.779Z,113.83
2023-03-13T02:27:00.318Z,113.43
2023-03-13T02:29:28.064Z,110.67
2023-03-13T02:31:55.220Z,114.23
2023-03-13T02:34:30.315Z,114.37
2023-03-13T02:37:01.529Z,113.80
2023-03-13T02:39:31.623Z,111.60
2023-03-13T02:42:01.720Z,114.07
2023-03-13T02:44:28.981Z,114.13
2023-03-13T02:46:56.742Z,114.37
2023-03-13T02:49:30.222Z,114.17
2023-03-13T02:52:20.115Z,111.17
2023-03-13T02:54:54.875Z,113.57
2023-03-13T02:57:22.834Z,113.80
2023-03-13T02:59:53.216Z,111.27
2023-03-13T03:02:20.244Z,111.70
2023-03-13T03:04:47.667Z,113.80
2023-03-13T03:07:15.188Z,113.20
2023-03-13T03:09:42.340Z,114.07
2023-03-13T03:12:14.764Z,114.07
2023-03-13T03:14:43.036Z,114.17
2023-03-13T03:17:10.203Z,113.70
2023-03-13T03:19:37.631Z,114.47
2023-03-13T03:22:05.393Z,111.20
2023-03-13T03:24:33.597Z,113.03
2023-03-13T03:27:00.629Z,113.97
2023-03-13T03:29:33.556Z,114.00
2023-03-13T03:32:01.131Z,114.07
2023-03-13T03:34:29.069Z,112.37
2023-03-13T03:36:56.882Z,113.30
2023-03-13T03:39:23.856Z,114.07
2023-03-13T03:41:50.865Z,113.97
2023-03-13T03:44:18.141Z,113.77
2023-03-13T03:46:56.657Z,113.97
2023-03-13T03:49:26.162Z,114.13
2023-03-13T03:51:53.564Z,114.03
2023-03-13T03:54:26.596Z,113.87
2023-03-13T03:56:54.332Z,113.57
2023-03-13T03:59:21.653Z,110.57
2023-03-13T04:01:55.534Z,113.87
2023-03-13T04:04:25.814Z,114.13
2023-03-13T04:06:59.890Z,114.43
2023-03-13T04:09:31.795Z,113.40
2023-03-13T04:11:59.505Z,111.63
2023-03-13T04:14:26.960Z,112.37
2023-03-13T04:16:54.984Z,112.77
2023-03-13T04:19:22.061Z,113.20
2023-03-13T04:21:49.294Z,114.17
2023-03-13T04:24:19.077Z,113.80
2023-03-13T04:26:46.156Z,114.07
2023-03-13T04:29:14.699Z,113.50
2023-03-13T04:31:53.452Z,113.97
2023-03-13T04:34:53.656Z,114.10
2023-03-13T04:37:39.607Z,113.90
2023-03-13T04:40:22.332Z,113.87
2023-03-13T04:43:08.020Z,114.17
2023-03-13T04:45:54.956Z,113.70
2023-03-13T04:48:46.792Z,114.37
2023-03-13T04:51:26.523Z,114.57
2023-03-13T04:54:09.796Z,114.37
2023-03-13T04:56:57.001Z,114.17
2023-03-13T04:59:33.681Z,113.87
2023-03-13T05:02:16.375Z,113.77
2023-03-13T05:04:58.353Z,113.90
2023-03-13T05:07:48.538Z,112.77
2023-03-13T05:10:37.713Z,113.00
2023-03-13T05:13:09.432Z,113.80
2023-03-13T05:15:52.355Z,112.33
2023-03-13T05:18:45.458Z,114.07
2023-03-13T05:21:33.280Z,113.97
2023-03-13T05:24:26.727Z,112.80
2023-03-13T05:27:07.517Z,114.23
2023-03-13T05:30:05.417Z,113.63
2023-03-13T05:33:05.333Z,114.10
2023-03-13T05:35:42.930Z,114.10
2023-03-13T05:38:39.033Z,111.27
2023-03-13T05:41:24.977Z,114.10
2023-03-13T05:44:21.569Z,113.77
2023-03-13T05:47:05.321Z,114.10
2023-03-13T05:49:49.357Z,114.17
2023-03-13T05:52:32.974Z,114.27
2023-03-13T05:55:30.896Z,112.87
2023-03-13T05:58:09.724Z,114.07
2023-03-13T06:00:49.149Z,114.17
2023-03-13T06:03:36.829Z,113.90
2023-03-13T06:06:05.175Z,113.80
2023-03-13T06:08:37.972Z,114.10
2023-03-13T06:11:05.690Z,114.33
2023-03-13T06:13:34.330Z,114.40
2023-03-13T06:16:08.747Z,112.93
2023-03-13T06:18:40.398Z,114.17
2023-03-13T06:21:07.382Z,113.70
2023-03-13T06:23:35.741Z,114.17
2023-03-13T06:26:03.961Z,114.57
2023-03-13T06:28:31.167Z,114.77
2023-03-13T06:31:04.888Z,114.47
2023-03-13T06:33:32.857Z,113.80
2023-03-13T06:36:02.466Z,114.27
2023-03-13T06:38:30.575Z,113.97
2023-03-13T06:40:58.211Z,114.07
2023-03-13T06:43:26.203Z,114.37
2023-03-13T06:45:53.595Z,112.47
2023-03-13T06:48:22.897Z,114.17
2023-03-13T06:50:50.419Z,114.70
2023-03-13T06:53:20.779Z,114.67
2023-03-13T06:55:49.006Z,114.17
2023-03-13T06:58:30.983Z,114.17
2023-03-13T07:01:07.017Z,114.27
2023-03-13T07:03:35.639Z,114.63
2023-03-13T07:06:03.700Z,114.60
2023-03-13T07:08:32.407Z,114.57
2023-03-13T07:11:07.536Z,114.07
2023-03-13T07:13:34.817Z,114.57
2023-03-13T07:16:08.747Z,113.37
2023-03-13T07:18:36.643Z,113.70
2023-03-13T07:21:05.564Z,114.50
2023-03-13T07:23:35.419Z,114.37
2023-03-13T07:26:11.576Z,114.10
2023-03-13T07:28:38.643Z,111.20
2023-03-13T07:31:17.297Z,114.67
2023-03-13T07:33:45.603Z,113.90
2023-03-13T07:36:15.421Z,111.67
2023-03-13T07:38:43.768Z,114.93
2023-03-13T07:41:13.560Z,114.97
2023-03-13T07:43:41.239Z,114.67
2023-03-13T07:46:14.851Z,114.80
2023-03-13T07:48:43.400Z,115.13
2023-03-13T07:51:36.870Z,115.17
2023-03-13T07:54:09.328Z,114.90
2023-03-13T07:56:36.274Z,114.57
2023-03-13T07:59:03.239Z,114.67
2023-03-13T08:01:31.483Z,115.37
2023-03-13T08:04:01.081Z,115.00
2023-03-13T08:06:35.449Z,114.77
2023-03-13T08:09:02.954Z,114.57
2023-03-13T08:11:30.288Z,115.27
2023-03-13T08:13:58.567Z,115.10
2023-03-13T08:16:33.910Z,114.50
2023-03-13T08:19:05.820Z,113.70
2023-03-13T08:21:37.262Z,114.17
2023-03-13T08:24:08.929Z,114.97
2023-03-13T08:26:39.803Z,114.20
2023-03-13T08:29:14.251Z,115.20
2023-03-13T08:31:48.695Z,115.17
2023-03-13T08:34:17.691Z,115.07
2023-03-13T08:36:45.536Z,114.27
2023-03-13T08:39:21.995Z,115.43
2023-03-13T08:41:49.786Z,115.67
2023-03-13T08:44:20.291Z,115.10
2023-03-13T08:46:49.131Z,114.80
2023-03-13T08:49:17.484Z,115.67
2023-03-13T08:51:44.542Z,115.50
2023-03-13T08:54:12.076Z,116.47
2023-03-13T08:56:40.818Z,115.07
2023-03-13T08:59:07.927Z,115.77
2023-03-13T09:03:53.103Z,114.70
2023-03-13T09:06:20.786Z,115.60
2023-03-13T09:08:48.328Z,116.50
2023-03-13T09:11:21.464Z,114.43
2023-03-13T09:13:51.269Z,114.77
2023-03-13T09:16:25.524Z,116.50
2023-03-13T09:18:54.082Z,116.20
2023-03-13T09:21:34.749Z,116.67
2023-03-13T09:24:02.284Z,115.90
2023-03-13T09:26:30.118Z,116.87
2023-03-13T09:28:57.905Z,116.20
2023-03-13T09:31:29.833Z,116.10
2023-03-13T09:33:57.365Z,115.40
2023-03-13T09:36:25.840Z,117.27
2023-03-13T09:38:57.109Z,116.87
2023-03-13T09:41:56.724Z,116.13
2023-03-13T09:44:32.899Z,117.60
2023-03-13T09:47:17.504Z,115.67
2023-03-13T09:49:57.134Z,117.33
2023-03-13T09:52:43.638Z,117.13
2023-03-13T09:55:21.452Z,116.93
2023-03-13T09:58:09.004Z,117.07
2023-03-13T10:00:41.172Z,117.40
2023-03-13T10:03:23.983Z,117.37
2023-03-13T10:05:57.587Z,116.90
2023-03-13T10:08:32.669Z,117.37
2023-03-13T10:11:16.981Z,116.83
2023-03-13T10:14:05.361Z,116.90
2023-03-13T10:16:39.307Z,117.67
2023-03-13T10:19:31.841Z,116.80
2023-03-13T10:22:04.334Z,117.40
2023-03-13T10:24:42.875Z,117.20
2023-03-13T10:27:11.809Z,116.60
2023-03-13T10:29:39.933Z,116.93
2023-03-13T10:32:11.225Z,116.90
2023-03-13T10:34:57.725Z,117.17
2023-03-13T10:37:33.473Z,116.40
2023-03-13T10:40:26.534Z,116.07
2023-03-13T10:43:26.134Z,117.03
2023-03-13T10:45:53.938Z,117.10
2023-03-13T10:48:30.029Z,116.90
2023-03-13T10:50:57.806Z,116.13
2023-03-13T10:53:28.796Z,117.47
2023-03-13T10:56:15.002Z,117.43
2023-03-13T10:58:49.989Z,117.00
2023-03-13T11:01:33.503Z,117.40
2023-03-13T11:04:34.041Z,117.30
2023-03-13T11:07:21.582Z,117.47
2023-03-13T11:10:29.694Z,117.53
2023-03-13T11:12:58.845Z,116.90
2023-03-13T11:15:57.163Z,116.90
2023-03-13T11:19:25.092Z,116.90
2023-03-13T11:22:13.775Z,116.83
2023-03-13T11:24:43.239Z,117.37
2023-03-13T11:27:55.915Z,117.00
2023-03-13T11:31:01.805Z,116.70
2023-03-13T11:33:57.385Z,117.47
2023-03-13T11:37:10.168Z,116.50
2023-03-13T11:40:21.173Z,117.10
2023-03-13T11:43:25.461Z,117.67
2023-03-13T11:46:27.566Z,116.77
2023-03-13T11:49:31.428Z,115.60
2023-03-13T11:52:40.607Z,116.70
2023-03-13T11:56:16.718Z,116.80
2023-03-13T11:59:51.521Z,117.33
2023-03-13T12:02:44.366Z,116.63
2023-03-13T12:05:19.313Z,116.83
2023-03-13T12:08:28.379Z,116.50
2023-03-13T12:11:29.132Z,116.30
2023-03-13T12:14:03.877Z,116.27
2023-03-13T12:16:49.308Z,116.60
2023-03-13T12:19:32.457Z,116.30
2023-03-13T12:22:19.731Z,116.67
2023-03-13T12:25:09.701Z,116.20
2023-03-13T12:27:52.834Z,116.67
2023-03-13T12:30:39.164Z,116.40
2023-03-13T12:33:24.468Z,115.67
2023-03-13T12:36:06.811Z,116.80
2023-03-13T12:38:44.342Z,116.97
2023-03-13T12:41:25.913Z,116.87
2023-03-13T12:44:07.885Z,116.73
2023-03-13T12:47:27.896Z,116.60
2023-03-13T12:50:32.934Z,116.23
2023-03-13T12:53:48.766Z,116.97
2023-03-13T12:57:06.269Z,116.17
2023-03-13T12:59:42.025Z,115.93
2023-03-13T13:02:22.309Z,116.10
2023-03-13T13:04:53.357Z,115.77
2023-03-13T13:07:35.588Z,115.87
2023-03-13T13:10:11.719Z,116.03
2023-03-13T13:12:46.295Z,115.90
2023-03-13T13:15:26.726Z,115.60
2023-03-13T13:18:28.934Z,115.77
2023-03-13T13:21:02.390Z,115.87
2023-03-13T13:23:48.076Z,115.20
2023-03-13T13:26:29.466Z,115.50
2023-03-13T13:29:01.448Z,115.07
2023-03-13T13:31:50.900Z,115.60
2023-03-13T13:34:36.229Z,115.47
2023-03-13T13:37:23.485Z,114.63
2023-03-13T13:39:53.981Z,114.90
2023-03-13T13:42:32.707Z,115.83
2023-03-13T13:45:14.835Z,115.23
2023-03-13T13:47:50.505Z,116.17
2023-03-13T13:50:19.142Z,115.30
2023-03-13T13:52:47.638Z,115.43
2023-03-13T13:55:26.449Z,115.87
2023-03-13T13:58:05.973Z,115.20
2023-03-13T14:01:11.064Z,115.10
2023-03-13T14:03:43.467Z,115.47
2023-03-13T14:06:33.528Z,115.00
2023-03-13T14:09:42.947Z,114.70
2023-03-13T14:12:36.997Z,114.13
2023-03-13T14:15:22.746Z,114.17
2023-03-13T14:18:09.349Z,114.17
2023-03-13T14:20:56.978Z,114.40
2023-03-13T14:23:47.229Z,114.67
2023-03-13T14:26:29.469Z,114.40
2023-03-13T14:29:05.398Z,114.60
2023-03-13T14:31:40.053Z,115.10
2023-03-13T14:34:12.384Z,115.03
2023-03-13T14:37:16.845Z,115.10
2023-03-13T14:39:46.351Z,115.50
2023-03-13T14:42:17.848Z,115.00
2023-03-13T14:44:49.553Z,115.00
2023-03-13T14:47:30.564Z,115.07
2023-03-13T14:50:09.299Z,115.07
2023-03-13T14:52:37.368Z,115.00
2023-03-13T14:55:28.318Z,115.47
2023-03-13T14:58:28.570Z,115.67
2023-03-13T15:00:58.781Z,115.77
2023-03-13T15:03:33.280Z,115.37
2023-03-13T15:06:11.377Z,115.20
2023-03-13T15:08:43.282Z,114.80
2023-03-13T15:11:29.585Z,115.07
2023-03-13T15:13:58.084Z,114.50
2023-03-13T15:16:28.061Z,115.27
2023-03-13T15:18:56.859Z,114.77
2023-03-13T15:21:33.286Z,114.77
2023-03-13T15:24:15.346Z,115.03
2023-03-13T15:26:42.384Z,115.30
2023-03-13T15:29:11.344Z,115.47
2023-03-13T15:31:39.729Z,115.30
2023-03-13T15:34:13.890Z,115.50
2023-03-13T15:36:42.408Z,115.97
2023-03-13T15:39:20.106Z,116.07
2023-03-13T15:41:47.136Z,115.50
2023-03-13T15:44:14.398Z,115.57
2023-03-13T15:46:41.840Z,115.70
2023-03-13T15:49:12.809Z,115.60
2023-03-13T15:51:39.888Z,116.20
2023-03-13T15:54:06.945Z,115.07
2023-03-13T15:56:38.709Z,115.60
2023-03-13T15:59:12.788Z,116.03
2023-03-13T16:01:43.108Z,116.60
2023-03-13T16:04:11.766Z,116.33
2023-03-13T16:06:38.730Z,116.67
2023-03-13T16:09:07.561Z,116.60
2023-03-13T16:11:35.078Z,116.20
2023-03-13T16:14:02.671Z,116.87
2023-03-13T16:16:37.284Z,116.60
2023-03-13T16:19:04.828Z,116.87
2023-03-13T16:21:34.755Z,116.30
2023-03-13T16:24:02.301Z,116.17
2023-03-13T16:26:31.884Z,116.30
2023-03-13T16:28:59.462Z,116.90
2023-03-13T16:31:31.366Z,117.17
2023-03-13T16:34:00.943Z,116.83
2023-03-13T16:36:32.778Z,116.70
2023-03-13T16:39:05.481Z,116.70
2023-03-13T16:41:32.939Z,117.30
2023-03-13T16:43:59.912Z,116.77
2023-03-13T16:46:55.618Z,116.97
2023-03-13T16:49:26.349Z,117.17
2023-03-13T16:51:53.826Z,116.80
2023-03-13T16:54:20.823Z,116.57
2023-03-13T16:56:48.195Z,116.80
2023-03-13T16:59:18.080Z,116.90
2023-03-13T17:01:47.068Z,116.70
2023-03-13T17:04:14.598Z,116.90
2023-03-13T17:06:44.514Z,117.07
2023-03-13T17:09:17.339Z,116.97
2023-03-13T17:11:44.938Z,116.60
2023-03-13T17:14:13.214Z,116.97
2023-03-13T17:16:44.544Z,117.03
2023-03-13T17:19:16.551Z,115.97
2023-03-13T17:21:43.610Z,117.63
2023-03-13T17:24:10.632Z,116.83
2023-03-13T17:26:40.242Z,117.27
2023-03-13T17:29:16.597Z,117.47
2023-03-13T17:31:43.709Z,117.20
2023-03-13T17:34:12.905Z,116.70
2023-03-13T17:36:41.505Z,117.10
2023-03-13T17:39:14.511Z,116.60
2023-03-13T17:41:41.750Z,117.47
2023-03-13T17:44:08.755Z,116.47
2023-03-13T17:46:44.245Z,117.33
2023-03-13T17:49:14.863Z,117.20
2023-03-13T17:51:46.046Z,114.97
2023-03-13T17:54:15.673Z,117.50
2023-03-13T17:56:44.890Z,117.40
2023-03-13T17:59:18.460Z,117.20
2023-03-13T18:01:46.073Z,117.30
2023-03-13T18:04:13.544Z,117.47
2023-03-13T18:06:49.634Z,116.37
2023-03-13T18:09:22.064Z,117.37
2023-03-13T18:11:49.810Z,117.60
2023-03-13T18:14:16.803Z,117.37
2023-03-13T18:16:48.180Z,117.47
2023-03-13T18:19:22.509Z,116.87
2023-03-13T18:21:53.911Z,117.40
2023-03-13T18:24:21.834Z,117.40
2023-03-13T18:26:50.395Z,118.03
2023-03-13T18:29:27.713Z,116.47
2023-03-13T18:31:58.814Z,117.30
2023-03-13T18:34:27.264Z,116.97
2023-03-13T18:36:55.097Z,117.50
2023-03-13T18:39:22.235Z,117.03
2023-03-13T18:41:52.125Z,117.23
2023-03-13T18:44:20.769Z,117.00
2023-03-13T18:46:48.204Z,115.87
2023-03-13T18:49:21.351Z,117.50
2023-03-13T18:51:52.132Z,116.80
2023-03-13T18:54:19.391Z,117.63
2023-03-13T18:56:47.958Z,116.50
2023-03-13T18:59:21.622Z,117.67
2023-03-13T19:01:49.564Z,117.57
2023-03-13T19:04:18.094Z,116.80
2023-03-13T19:06:46.554Z,117.23
2023-03-13T19:09:42.375Z,117.67
2023-03-13T19:12:07.203Z,117.23
2023-03-13T19:14:34.265Z,116.77
2023-03-13T19:17:01.571Z,117.47
2023-03-13T19:19:31.798Z,116.57
2023-03-13T19:21:59.335Z,117.50
2023-03-13T19:24:27.260Z,116.60
2023-03-13T19:26:59.073Z,115.87
2023-03-13T19:29:28.806Z,117.20
2023-03-13T19:31:56.355Z,116.60
2023-03-13T19:34:23.621Z,117.27
2023-03-13T19:36:53.171Z,117.20
2023-03-13T19:39:23.853Z,117.27
2023-03-13T19:41:52.457Z,117.23
2023-03-13T19:44:24.725Z,116.90
2023-03-13T19:46:54.452Z,117.20
2023-03-13T19:49:21.938Z,117.30
2023-03-13T19:51:49.487Z,116.70
2023-03-13T19:54:16.968Z,117.10
2023-03-13T19:56:48.937Z,117.37
2023-03-13T19:59:23.375Z,116.83
2023-03-13T20:01:50.600Z,115.97
2023-03-13T20:04:18.211Z,117.27
2023-03-13T20:06:45.650Z,117.37
2023-03-13T20:09:25.905Z,117.20
2023-03-13T20:11:53.015Z,116.80
2023-03-13T20:14:20.466Z,116.47
2023-03-13T20:16:48.859Z,116.87
2023-03-13T20:19:16.451Z,116.97
2023-03-13T20:21:44.024Z,116.93
2023-03-13T20:24:11.025Z,117.17
2023-03-13T20:26:38.406Z,117.17
2023-03-13T20:29:05.476Z,117.00
2023-03-13T20:31:33.201Z,116.90
2023-03-13T20:34:00.898Z,116.70
2023-03-13T20:36:28.239Z,116.77
2023-03-13T20:38:58.354Z,116.27
2023-03-13T20:41:30.925Z,117.20
2023-03-13T20:43:58.541Z,117.80
2023-03-13T20:46:25.633Z,117.80
2023-03-13T20:48:53.008Z,117.93
2023-03-13T20:51:20.086Z,118.27
2023-03-13T20:53:47.980Z,117.07
2023-03-13T20:56:15.408Z,118.17
2023-03-13T20:58:42.490Z,117.40
2023-03-13T21:01:09.977Z,116.97
2023-03-13T21:03:37.365Z,118.13
2023-03-13T21:06:18.150Z,117.97
2023-03-13T21:08:46.811Z,117.60
2023-03-13T21:11:21.430Z,117.97
2023-03-13T21:13:49.554Z,116.77
2023-03-13T21:16:18.652Z,117.97
2023-03-13T21:18:46.915Z,117.97
2023-03-13T21:21:18.853Z,117.23
2023-03-13T21:23:47.003Z,117.97
2023-03-13T21:26:15.657Z,117.60
2023-03-13T21:28:43.129Z,118.07
2023-03-13T21:31:17.593Z,117.57
2023-03-13T21:33:47.030Z,116.47
2023-03-13T21:36:18.129Z,117.97
2023-03-13T21:38:45.650Z,115.97
2023-03-13T21:41:20.501Z,116.73
2023-03-13T21:43:47.805Z,117.70
2023-03-13T21:46:17.822Z,117.60
2023-03-13T21:51:13.928Z,117.57
2023-03-13T21:53:42.093Z,117.30
2023-03-13T21:56:15.041Z,115.97
2023-03-13T21:58:43.958Z,116.47
2023-03-13T22:01:12.172Z,117.37
2023-03-13T22:03:39.535Z,117.03
2023-03-13T22:06:19.618Z,116.93
2023-03-13T22:08:49.076Z,117.00
2023-03-13T22:11:16.724Z,116.03
2023-03-13T22:13:44.190Z,117.40
2023-03-13T22:16:11.847Z,116.90
2023-03-13T22:18:40.578Z,117.10
2023-03-13T22:21:08.018Z,117.20
2023-03-13T22:23:35.051Z,116.83
2023-03-13T22:26:02.167Z,117.40
2023-03-13T22:28:29.685Z,117.47
2023-03-13T22:31:01.626Z,117.20
2023-03-13T22:33:28.669Z,116.57
2023-03-13T22:35:56.081Z,117.57
2023-03-13T22:38:23.765Z,116.37
2023-03-13T22:41:03.751Z,117.43
2023-03-13T22:43:31.192Z,117.70
2023-03-13T22:45:59.763Z,117.57
2023-03-13T22:48:27.389Z,116.37
2023-03-13T22:51:03.904Z,117.73
2023-03-13T22:53:32.852Z,117.20
2023-03-13T22:56:00.199Z,116.90
2023-03-13T22:58:27.901Z,117.67
2023-03-13T23:00:56.461Z,117.53
2023-03-13T23:03:23.980Z,115.77
2023-03-13T23:05:51.193Z,117.70
2023-03-13T23:08:19.057Z,117.70
2023-03-13T23:10:47.577Z,117.07
2023-03-13T23:13:15.524Z,116.97
2023-03-13T23:15:58.509Z,117.10
2023-03-13T23:18:27.761Z,117.50
2023-03-13T23:20:55.177Z,117.00
2023-03-13T23:23:22.724Z,116.57
2023-03-13T23:25:50.598Z,116.70
2023-03-13T23:28:17.600Z,116.90
2023-03-13T23:30:45.004Z,116.87
2023-03-13T23:33:12.435Z,117.27
2023-03-13T23:35:39.854Z,114.17
2023-03-13T23:38:07.337Z,114.17
2023-03-13T23:40:34.317Z,116.83
2023-03-13T23:43:02.123Z,116.63
2023-03-13T23:45:29.616Z,116.87
2023-03-13T23:47:56.622Z,117.00
2023-03-13T23:50:24.026Z,116.90
2023-03-13T23:52:51.111Z,116.87
2023-03-13T23:55:18.158Z,113.77
2023-03-13T23:57:50.514Z,116.67
